createdAt,value
2022-08-29T00:00:06.320Z,101926.00
2022-08-29T00:02:32.946Z,101927.38
2022-08-29T00:04:59.445Z,101914.31
2022-08-29T00:07:26.529Z,101913.41
2022-08-29T00:09:53.028Z,101920.59
2022-08-29T00:12:19.494Z,101908.56
2022-08-29T00:14:45.960Z,101910.66
2022-08-29T00:17:12.440Z,101907.34
2022-08-29T00:19:38.937Z,101913.16
2022-08-29T00:22:05.640Z,101912.41
2022-08-29T00:24:32.451Z,101911.38
2022-08-29T00:27:00.397Z,101913.94
2022-08-29T00:29:26.865Z,101913.91
2022-08-29T00:31:53.677Z,101914.50
2022-08-29T00:34:20.821Z,101918.41
2022-08-29T00:36:49.335Z,101917.22
2022-08-29T00:39:16.057Z,101905.75
2022-08-29T00:41:42.681Z,101908.59
2022-08-29T00:44:09.114Z,101903.47
2022-08-29T00:46:50.131Z,101902.75
2022-08-29T00:49:25.823Z,101906.59
2022-08-29T00:51:53.028Z,101900.00
2022-08-29T00:54:20.111Z,101907.50
2022-08-29T00:56:46.642Z,101902.09
2022-08-29T00:59:17.293Z,101903.88
2022-08-29T01:01:44.932Z,101903.59
2022-08-29T01:04:14.732Z,101904.19
2022-08-29T01:06:43.160Z,101909.56
2022-08-29T01:09:10.173Z,101914.03
2022-08-29T01:11:55.396Z,101919.09
2022-08-29T01:14:23.503Z,101916.88
2022-08-29T01:16:51.443Z,101915.66
2022-08-29T01:19:33.199Z,101912.31
2022-08-29T01:22:07.698Z,101911.84
2022-08-29T01:24:46.025Z,101912.97
2022-08-29T01:27:14.235Z,101904.81
2022-08-29T01:29:41.364Z,101909.72
2022-08-29T01:32:07.812Z,101904.50
2022-08-29T01:34:34.342Z,101906.25
2022-08-29T01:37:05.657Z,101901.19
2022-08-29T01:39:37.121Z,101906.59
2022-08-29T01:42:20.406Z,101909.22
2022-08-29T01:44:52.300Z,101894.75
2022-08-29T01:47:19.433Z,101904.66
2022-08-29T01:49:45.894Z,101911.91
2022-08-29T01:52:12.798Z,101905.00
2022-08-29T01:54:43.389Z,101915.34
2022-08-29T01:57:13.162Z,101912.00
2022-08-29T01:59:40.203Z,101907.41
2022-08-29T02:02:19.808Z,101906.91
2022-08-29T02:04:47.494Z,101901.94
2022-08-29T02:07:17.501Z,101907.47
2022-08-29T02:09:45.862Z,101909.44
2022-08-29T02:12:13.706Z,101920.97
2022-08-29T02:14:40.691Z,101907.94
2022-08-29T02:17:07.953Z,101920.47
2022-08-29T02:19:36.930Z,101907.41
2022-08-29T02:22:03.850Z,101906.16
2022-08-29T02:24:30.391Z,101914.75
2022-08-29T02:26:57.901Z,101912.31
2022-08-29T02:29:25.201Z,101909.25
2022-08-29T02:31:52.206Z,101911.91
2022-08-29T02:34:19.552Z,101911.91
2022-08-29T02:36:49.081Z,101908.41
2022-08-29T02:39:16.482Z,101904.03
2022-08-29T02:41:44.575Z,101903.50
2022-08-29T02:44:11.753Z,101905.47
2022-08-29T02:46:38.284Z,101901.56
2022-08-29T02:49:05.041Z,101910.41
2022-08-29T02:51:32.280Z,101900.59
2022-08-29T02:53:59.768Z,101909.78
2022-08-29T02:56:26.427Z,101908.75
2022-08-29T02:58:52.889Z,101906.28
2022-08-29T03:01:20.844Z,101897.63
2022-08-29T03:03:47.311Z,101902.59
2022-08-29T03:06:13.867Z,101905.19
2022-08-29T03:08:40.777Z,101917.72
2022-08-29T03:11:08.028Z,101912.38
2022-08-29T03:13:34.543Z,101907.94
2022-08-29T03:16:04.426Z,101912.66
2022-08-29T03:18:31.325Z,101907.69
2022-08-29T03:20:58.243Z,101908.00
2022-08-29T03:23:24.655Z,101907.88
2022-08-29T03:25:51.096Z,101907.44
2022-08-29T03:28:17.577Z,101907.44
2022-08-29T03:30:44.131Z,101902.31
2022-08-29T03:33:11.897Z,101910.16
2022-08-29T03:35:39.135Z,101904.94
2022-08-29T03:38:05.691Z,101903.31
2022-08-29T03:40:32.553Z,101898.41
2022-08-29T03:42:59.010Z,101900.91
2022-08-29T03:45:26.105Z,101903.19
2022-08-29T03:47:52.906Z,101887.84
2022-08-29T03:50:20.934Z,101898.09
2022-08-29T03:52:48.052Z,101900.28
2022-08-29T03:55:16.003Z,101898.38
2022-08-29T03:57:43.070Z,101901.19
2022-08-29T04:00:12.672Z,101904.94
2022-08-29T04:02:40.060Z,101912.97
2022-08-29T04:05:10.038Z,101917.25
2022-08-29T04:07:43.006Z,101917.75
2022-08-29T04:10:10.998Z,101906.97
2022-08-29T04:12:37.612Z,101904.81
2022-08-29T04:15:05.886Z,101906.47
2022-08-29T04:17:33.306Z,101912.34
2022-08-29T04:19:59.821Z,101910.81
2022-08-29T04:22:26.242Z,101906.44
2022-08-29T04:24:52.705Z,101914.78
2022-08-29T04:27:19.245Z,101926.88
2022-08-29T04:29:48.323Z,101924.34
2022-08-29T04:32:16.329Z,101925.47
2022-08-29T04:34:42.775Z,101931.81
2022-08-29T04:37:09.424Z,101925.97
2022-08-29T04:39:36.138Z,101925.84
2022-08-29T04:42:02.633Z,101933.53
2022-08-29T04:44:29.086Z,101933.06
2022-08-29T04:46:55.718Z,101933.16
2022-08-29T04:49:22.259Z,101933.81
2022-08-29T04:51:49.096Z,101928.47
2022-08-29T04:54:15.538Z,101932.22
2022-08-29T04:56:47.126Z,101925.19
2022-08-29T04:59:15.125Z,101935.09
2022-08-29T05:01:42.424Z,101933.63
2022-08-29T05:04:14.175Z,101937.38
2022-08-29T05:06:41.288Z,101940.41
2022-08-29T05:09:07.743Z,101944.19
2022-08-29T05:11:34.437Z,101951.81
2022-08-29T05:14:01.113Z,101949.41
2022-08-29T05:16:29.906Z,101943.72
2022-08-29T05:18:56.660Z,101940.69
2022-08-29T05:21:35.304Z,101947.97
2022-08-29T05:24:03.998Z,101943.47
2022-08-29T05:26:32.758Z,101943.50
2022-08-29T05:28:59.304Z,101951.28
2022-08-29T05:31:25.974Z,101949.47
2022-08-29T05:33:52.520Z,101954.72
2022-08-29T05:36:19.015Z,101960.59
2022-08-29T05:38:46.199Z,101957.91
2022-08-29T05:41:12.654Z,101957.50
2022-08-29T05:43:39.062Z,101960.31
2022-08-29T05:46:07.991Z,101964.06
2022-08-29T05:48:34.897Z,101958.97
2022-08-29T05:51:01.949Z,101965.84
2022-08-29T05:53:28.487Z,101967.53
2022-08-29T05:55:55.652Z,101970.50
2022-08-29T05:58:22.239Z,101984.38
2022-08-29T06:00:49.177Z,101982.94
2022-08-29T06:03:16.636Z,101985.78
2022-08-29T06:05:43.357Z,101986.81
2022-08-29T06:08:09.903Z,101983.09
2022-08-29T06:10:40.806Z,101977.56
2022-08-29T06:13:07.234Z,101980.88
2022-08-29T06:15:33.878Z,101980.56
2022-08-29T06:18:00.351Z,101986.59
2022-08-29T06:20:26.859Z,101988.22
2022-08-29T06:22:53.339Z,101986.84
2022-08-29T06:25:38.415Z,101982.78
2022-08-29T06:28:06.295Z,101999.22
2022-08-29T06:30:33.565Z,101992.88
2022-08-29T06:33:01.154Z,102001.88
2022-08-29T06:35:27.860Z,101993.41
2022-08-29T06:37:54.283Z,102000.66
2022-08-29T06:40:20.820Z,102002.91
2022-08-29T06:42:47.557Z,102007.84
2022-08-29T06:45:14.215Z,102004.47
2022-08-29T06:47:40.649Z,102006.16
2022-08-29T06:50:07.464Z,102009.28
2022-08-29T06:52:34.089Z,102006.75
2022-08-29T06:55:02.353Z,102008.72
2022-08-29T06:57:28.785Z,102013.00
2022-08-29T06:59:55.245Z,102020.91
2022-08-29T07:02:21.761Z,102021.38
2022-08-29T07:04:48.277Z,102030.19
2022-08-29T07:07:14.759Z,102013.56
2022-08-29T07:09:41.255Z,102013.34
2022-08-29T07:12:07.761Z,102011.75
2022-08-29T07:14:34.223Z,102019.19
2022-08-29T07:17:00.720Z,102009.97
2022-08-29T07:19:27.613Z,102020.94
2022-08-29T07:21:54.327Z,102016.44
2022-08-29T07:24:25.074Z,102018.97
2022-08-29T07:26:51.786Z,102009.69
2022-08-29T07:29:20.946Z,102009.06
2022-08-29T07:31:47.948Z,102023.50
2022-08-29T07:34:14.913Z,102016.78
2022-08-29T07:36:41.409Z,102025.03
2022-08-29T07:39:11.116Z,102021.91
2022-08-29T07:41:39.204Z,102020.56
2022-08-29T07:44:05.900Z,102025.63
2022-08-29T07:46:32.464Z,102014.22
2022-08-29T07:48:59.847Z,102018.06
2022-08-29T07:51:27.049Z,102017.06
2022-08-29T07:53:54.090Z,102019.84
2022-08-29T07:56:26.311Z,102021.31
2022-08-29T07:58:54.009Z,102008.00
2022-08-29T08:01:21.760Z,102010.56
2022-08-29T08:03:50.687Z,102016.34
2022-08-29T08:06:20.725Z,102013.31
2022-08-29T08:08:47.951Z,102022.50
2022-08-29T08:11:14.563Z,102026.91
2022-08-29T08:13:41.136Z,102023.34
2022-08-29T08:16:11.319Z,102018.94
2022-08-29T08:18:38.999Z,102017.84
2022-08-29T08:21:05.669Z,102020.63
2022-08-29T08:23:32.392Z,102024.13
2022-08-29T08:25:59.494Z,102023.72
2022-08-29T08:28:28.113Z,102040.03
2022-08-29T08:30:54.990Z,102030.09
2022-08-29T08:33:21.474Z,102026.84
2022-08-29T08:35:48.059Z,102036.84
2022-08-29T08:38:16.894Z,102043.00
2022-08-29T08:41:08.892Z,102042.91
2022-08-29T08:43:49.799Z,102051.13
2022-08-29T08:46:16.798Z,102051.47
2022-08-29T08:48:43.501Z,102049.97
2022-08-29T08:51:15.337Z,102057.81
2022-08-29T08:53:45.323Z,102047.56
2022-08-29T08:56:28.953Z,102044.28
2022-08-29T08:58:58.295Z,102057.09
2022-08-29T09:01:38.275Z,102054.13
2022-08-29T09:04:27.223Z,102063.91
2022-08-29T09:07:15.005Z,102061.47
2022-08-29T09:10:03.020Z,102046.25
2022-08-29T09:12:58.545Z,102056.53
2022-08-29T09:15:32.896Z,102061.97
2022-08-29T09:18:06.626Z,102060.94
2022-08-29T09:20:36.722Z,102066.63
2022-08-29T09:23:25.986Z,102057.63
2022-08-29T09:25:52.451Z,102060.63
2022-08-29T09:28:18.946Z,102056.09
2022-08-29T09:31:17.124Z,102048.50
2022-08-29T09:33:49.942Z,102059.38
2022-08-29T09:36:38.284Z,102047.06
2022-08-29T09:39:14.924Z,102041.31
2022-08-29T09:41:41.766Z,102047.50
2022-08-29T09:44:13.791Z,102051.94
2022-08-29T09:46:40.344Z,102042.09
2022-08-29T09:49:06.729Z,102058.97
2022-08-29T09:51:38.253Z,102053.75
2022-08-29T09:54:13.775Z,102038.00
2022-08-29T09:56:48.468Z,102049.59
2022-08-29T09:59:29.997Z,102052.25
2022-08-29T10:02:20.837Z,102044.81
2022-08-29T10:04:53.905Z,102054.06
2022-08-29T10:07:22.127Z,102045.97
2022-08-29T10:10:06.940Z,102042.69
2022-08-29T10:13:01.463Z,102049.88
2022-08-29T10:15:50.468Z,102045.91
2022-08-29T10:18:28.098Z,102046.09
2022-08-29T10:21:19.866Z,102049.16
2022-08-29T10:24:03.523Z,102048.81
2022-08-29T10:26:51.330Z,102054.31
2022-08-29T10:29:51.584Z,102070.47
2022-08-29T10:32:41.282Z,102063.63
2022-08-29T10:35:14.250Z,102062.66
2022-08-29T10:37:50.959Z,102069.13
2022-08-29T10:40:43.701Z,102085.22
2022-08-29T10:43:39.198Z,102073.00
2022-08-29T10:46:33.517Z,102065.34
2022-08-29T10:49:22.988Z,102056.09
2022-08-29T10:52:01.446Z,102055.72
2022-08-29T10:55:07.505Z,102060.66
2022-08-29T10:57:57.002Z,102064.63
2022-08-29T11:00:47.142Z,102057.09
2022-08-29T11:03:36.055Z,102067.66
2022-08-29T11:06:07.795Z,102061.63
2022-08-29T11:08:45.599Z,102061.72
2022-08-29T11:11:16.040Z,102067.47
2022-08-29T11:13:45.602Z,102057.53
2022-08-29T11:16:19.649Z,102065.69
2022-08-29T11:19:00.378Z,102065.25
2022-08-29T11:21:44.562Z,102053.91
2022-08-29T11:24:12.446Z,102058.44
2022-08-29T11:26:49.296Z,102056.91
2022-08-29T11:29:46.830Z,102056.22
2022-08-29T11:32:23.843Z,102059.38
2022-08-29T11:35:04.188Z,102053.31
2022-08-29T11:37:39.643Z,102057.78
2022-08-29T11:43:28.405Z,102057.78
2022-08-29T11:46:06.245Z,102064.47
2022-08-29T11:48:37.723Z,102065.97
2022-08-29T11:51:37.457Z,102065.75
2022-08-29T11:54:28.677Z,102059.72
2022-08-29T11:57:01.431Z,102063.25
2022-08-29T11:59:49.976Z,102065.16
2022-08-29T12:02:29.211Z,102069.41
2022-08-29T12:04:57.672Z,102062.69
2022-08-29T12:07:34.978Z,102054.81
2022-08-29T12:10:08.228Z,102059.22
2022-08-29T12:12:39.937Z,102045.09
2022-08-29T12:15:27.866Z,102043.34
2022-08-29T12:18:02.523Z,102051.22
2022-08-29T12:20:35.500Z,102049.34
2022-08-29T12:23:06.210Z,102044.88
2022-08-29T12:25:55.183Z,102046.59
2022-08-29T12:28:36.582Z,102043.34
2022-08-29T12:31:30.539Z,102034.53
2022-08-29T12:34:12.733Z,102052.22
2022-08-29T12:37:14.314Z,102035.91
2022-08-29T12:40:00.032Z,102036.38
2022-08-29T12:42:54.432Z,102033.63
2022-08-29T12:45:27.188Z,102037.00
2022-08-29T12:48:00.230Z,102024.47
2022-08-29T12:50:30.208Z,102024.47
2022-08-29T12:53:16.568Z,102029.16
2022-08-29T12:55:45.568Z,102024.31
2022-08-29T12:58:14.066Z,102030.78
2022-08-29T13:00:41.817Z,102030.34
2022-08-29T13:03:15.545Z,102025.84
2022-08-29T13:05:43.309Z,102023.19
2022-08-29T13:08:17.223Z,102016.13
2022-08-29T13:11:08.508Z,102016.69
2022-08-29T13:13:35.870Z,102014.81
2022-08-29T13:16:05.494Z,102024.97
2022-08-29T13:18:40.303Z,102022.19
2022-08-29T13:21:25.587Z,102027.47
2022-08-29T13:24:10.367Z,102007.59
2022-08-29T13:26:40.491Z,102024.47
2022-08-29T13:29:09.872Z,102007.59
2022-08-29T13:31:37.962Z,102009.94
2022-08-29T13:34:09.795Z,102008.22
2022-08-29T13:36:59.373Z,102013.69
2022-08-29T13:39:46.620Z,102000.53
2022-08-29T13:42:19.758Z,102003.59
2022-08-29T13:44:49.108Z,102002.84
2022-08-29T13:47:17.255Z,102000.34
2022-08-29T13:49:43.768Z,101995.56
2022-08-29T13:52:10.921Z,101997.41
2022-08-29T13:54:39.234Z,102000.22
2022-08-29T13:57:07.958Z,102001.94
2022-08-29T13:59:36.619Z,101998.84
2022-08-29T14:02:11.219Z,101992.34
2022-08-29T14:04:40.261Z,101985.59
2022-08-29T14:07:15.105Z,101982.84
2022-08-29T14:09:44.337Z,101987.94
2022-08-29T14:12:10.927Z,101984.19
2022-08-29T14:14:37.383Z,101990.88
2022-08-29T14:17:04.564Z,101992.22
2022-08-29T14:19:31.022Z,101995.50
2022-08-29T14:22:00.710Z,101988.09
2022-08-29T14:24:30.076Z,101991.53
2022-08-29T14:27:01.129Z,101991.75
2022-08-29T14:29:32.799Z,101987.78
2022-08-29T14:31:59.641Z,101984.94
2022-08-29T14:34:30.851Z,101980.44
2022-08-29T14:36:59.755Z,101982.19
2022-08-29T14:39:26.524Z,101976.75
2022-08-29T14:41:53.867Z,101982.44
2022-08-29T14:44:21.761Z,101970.66
2022-08-29T14:46:48.411Z,101997.59
2022-08-29T14:49:15.294Z,101985.13
2022-08-29T14:51:42.083Z,101970.63
2022-08-29T14:54:08.791Z,101965.91
2022-08-29T14:56:48.065Z,101978.22
2022-08-29T14:59:15.575Z,101982.09
2022-08-29T15:01:42.062Z,101982.91
2022-08-29T15:04:08.714Z,101983.75
2022-08-29T15:06:35.261Z,101972.91
2022-08-29T15:09:02.021Z,101973.16
2022-08-29T15:11:31.033Z,101969.00
2022-08-29T15:14:02.244Z,101969.97
2022-08-29T15:16:31.868Z,101973.63
2022-08-29T15:19:44.831Z,101972.03
2022-08-29T15:21:45.115Z,101975.16
2022-08-29T15:24:11.650Z,101969.19
2022-08-29T15:26:38.104Z,101975.94
2022-08-29T15:29:04.937Z,101971.50
2022-08-29T15:31:31.637Z,101967.59
2022-08-29T15:33:58.187Z,101974.72
2022-08-29T15:36:24.672Z,101980.47
2022-08-29T15:38:51.143Z,101976.94
2022-08-29T15:41:17.586Z,101980.44
2022-08-29T15:43:44.076Z,101978.84
2022-08-29T15:46:10.664Z,101975.69
2022-08-29T15:48:37.418Z,101976.28
2022-08-29T15:51:04.063Z,101967.91
2022-08-29T15:53:30.713Z,101976.13
2022-08-29T15:55:57.236Z,101982.50
2022-08-29T15:58:23.721Z,101971.06
2022-08-29T16:00:50.142Z,101982.22
2022-08-29T16:03:16.607Z,101975.19
2022-08-29T16:05:43.723Z,101974.16
2022-08-29T16:08:12.960Z,101975.91
2022-08-29T16:10:43.651Z,101977.66
2022-08-29T16:13:10.130Z,101974.03
2022-08-29T16:15:36.994Z,101969.31
2022-08-29T16:18:04.182Z,101975.41
2022-08-29T16:20:31.187Z,101977.50
2022-08-29T16:22:57.712Z,101973.31
2022-08-29T16:25:25.079Z,101973.91
2022-08-29T16:27:51.616Z,101982.66
2022-08-29T16:30:19.227Z,101971.16
2022-08-29T16:32:45.925Z,101962.63
2022-08-29T16:35:12.722Z,101973.94
2022-08-29T16:37:39.268Z,101969.72
2022-08-29T16:40:07.628Z,101973.00
2022-08-29T16:42:34.151Z,101966.34
2022-08-29T16:45:00.709Z,101970.06
2022-08-29T16:47:27.904Z,101961.75
2022-08-29T16:49:54.558Z,101967.59
2022-08-29T16:52:21.039Z,101973.63
2022-08-29T16:54:47.578Z,101971.34
2022-08-29T16:57:18.506Z,101966.22
2022-08-29T16:59:45.182Z,101961.97
2022-08-29T17:02:11.649Z,101962.19
2022-08-29T17:04:38.365Z,101957.53
2022-08-29T17:07:05.112Z,101971.81
2022-08-29T17:09:31.499Z,101966.16
2022-08-29T17:11:57.930Z,101969.38
2022-08-29T17:14:28.494Z,101973.34
2022-08-29T17:16:55.530Z,101965.72
2022-08-29T17:19:23.253Z,101966.47
2022-08-29T17:21:50.238Z,101971.22
2022-08-29T17:24:17.058Z,101967.09
2022-08-29T17:26:45.569Z,101967.25
2022-08-29T17:29:12.395Z,101966.56
2022-08-29T17:31:39.179Z,101968.47
2022-08-29T17:34:07.682Z,101967.91
2022-08-29T17:36:36.514Z,101965.34
2022-08-29T17:39:05.157Z,101956.88
2022-08-29T17:41:32.752Z,101967.03
2022-08-29T17:43:59.287Z,101961.03
2022-08-29T17:46:25.819Z,101965.56
2022-08-29T17:48:52.311Z,101965.19
2022-08-29T17:51:18.760Z,101962.78
2022-08-29T17:53:46.337Z,101965.84
2022-08-29T17:56:15.887Z,101973.19
2022-08-29T17:58:42.550Z,101980.00
2022-08-29T18:01:15.737Z,101976.25
2022-08-29T18:03:43.075Z,101984.47
2022-08-29T18:06:10.188Z,101983.75
2022-08-29T18:08:38.054Z,101983.41
2022-08-29T18:11:04.543Z,101988.69
2022-08-29T18:13:31.059Z,101987.56
2022-08-29T18:15:57.511Z,101989.97
2022-08-29T18:18:24.090Z,101994.66
2022-08-29T18:20:50.724Z,102007.59
2022-08-29T18:23:17.491Z,102006.28
2022-08-29T18:25:43.933Z,102005.88
2022-08-29T18:28:10.367Z,101999.81
2022-08-29T18:30:37.036Z,102010.94
2022-08-29T18:33:03.720Z,102009.53
2022-08-29T18:35:31.527Z,102013.34
2022-08-29T18:37:57.957Z,102020.13
2022-08-29T18:40:25.060Z,102020.97
2022-08-29T18:42:52.555Z,102027.28
2022-08-29T18:45:19.081Z,102026.97
2022-08-29T18:47:45.559Z,102022.66
2022-08-29T18:50:30.711Z,102022.66
2022-08-29T18:52:57.185Z,102028.44
2022-08-29T18:55:23.830Z,102027.06
2022-08-29T18:57:51.786Z,102030.22
2022-08-29T19:00:18.374Z,102033.38
2022-08-29T19:02:44.957Z,102034.53
2022-08-29T19:05:11.629Z,102044.09
2022-08-29T19:07:38.397Z,102045.75
2022-08-29T19:10:06.510Z,102036.88
2022-08-29T19:12:33.102Z,102038.16
2022-08-29T19:15:00.127Z,102044.75
2022-08-29T19:17:26.723Z,102041.84
2022-08-29T19:20:12.341Z,102040.38
2022-08-29T19:22:39.336Z,102050.41
2022-08-29T19:25:08.676Z,102049.72
2022-08-29T19:27:43.686Z,102048.47
2022-08-29T19:30:11.722Z,102055.09
2022-08-29T19:32:38.519Z,102063.53
2022-08-29T19:35:05.718Z,102070.19
2022-08-29T19:37:32.193Z,102063.84
2022-08-29T19:39:58.808Z,102070.78
2022-08-29T19:42:25.311Z,102067.75
2022-08-29T19:44:51.755Z,102067.22
2022-08-29T19:47:18.170Z,102070.81
2022-08-29T19:49:48.204Z,102068.84
2022-08-29T19:52:15.379Z,102068.72
2022-08-29T19:54:43.334Z,102065.13
2022-08-29T19:57:10.057Z,102070.22
2022-08-29T19:59:41.045Z,102072.34
2022-08-29T20:02:09.272Z,102070.81
2022-08-29T20:04:36.356Z,102069.19
2022-08-29T20:07:03.196Z,102075.06
2022-08-29T20:09:29.843Z,102084.72
2022-08-29T20:11:57.153Z,102084.22
2022-08-29T20:14:23.931Z,102087.69
2022-08-29T20:16:51.693Z,102087.69
2022-08-29T20:19:18.915Z,102094.50
2022-08-29T20:21:45.841Z,102096.47
2022-08-29T20:24:15.677Z,102091.03
2022-08-29T20:26:44.681Z,102096.59
2022-08-29T20:29:11.663Z,102102.47
2022-08-29T20:31:39.155Z,102102.47
2022-08-29T20:34:05.674Z,102112.44
2022-08-29T20:36:50.625Z,102103.81
2022-08-29T20:39:18.505Z,102105.81
2022-08-29T20:41:53.615Z,102107.00
2022-08-29T20:44:20.556Z,102109.97
2022-08-29T20:46:47.989Z,102107.59
2022-08-29T20:49:18.796Z,102108.47
2022-08-29T20:51:45.788Z,102098.53
2022-08-29T20:54:15.680Z,102100.66
2022-08-29T20:56:42.410Z,102106.97
2022-08-29T20:59:10.420Z,102117.78
2022-08-29T21:01:37.562Z,102124.13
2022-08-29T21:04:24.627Z,102126.53
2022-08-29T21:06:55.690Z,102117.81
2022-08-29T21:09:22.608Z,102118.84
2022-08-29T21:11:50.270Z,102121.41
2022-08-29T21:14:16.744Z,102122.00
2022-08-29T21:16:43.774Z,102130.13
2022-08-29T21:19:10.586Z,102129.41
2022-08-29T21:21:39.004Z,102129.81
2022-08-29T21:24:10.381Z,102124.41
2022-08-29T21:26:37.394Z,102131.94
2022-08-29T21:29:05.359Z,102128.94
2022-08-29T21:31:32.085Z,102121.09
2022-08-29T21:34:00.361Z,102113.56
2022-08-29T21:36:29.428Z,102120.66
2022-08-29T21:39:00.572Z,102127.41
2022-08-29T21:41:28.588Z,102131.66
2022-08-29T21:43:55.038Z,102134.06
2022-08-29T21:46:30.964Z,102134.66
2022-08-29T21:49:02.384Z,102130.72
2022-08-29T21:51:30.407Z,102127.06
2022-08-29T21:53:58.245Z,102125.84
2022-08-29T21:56:26.081Z,102129.28
2022-08-29T21:58:54.508Z,102134.81
2022-08-29T22:01:23.646Z,102124.56
2022-08-29T22:03:50.792Z,102119.63
2022-08-29T22:06:18.039Z,102125.38
2022-08-29T22:08:45.538Z,102128.63
2022-08-29T22:11:14.722Z,102124.56
2022-08-29T22:13:41.363Z,102122.44
2022-08-29T22:16:26.403Z,102121.66
2022-08-29T22:18:52.956Z,102124.50
2022-08-29T22:21:19.707Z,102117.47
2022-08-29T22:23:46.215Z,102107.09
2022-08-29T22:26:13.533Z,102108.53
2022-08-29T22:28:40.917Z,102109.16
2022-08-29T22:31:07.913Z,102115.44
2022-08-29T22:33:34.479Z,102122.88
2022-08-29T22:36:00.916Z,102109.66
2022-08-29T22:38:28.895Z,102111.19
2022-08-29T22:40:55.721Z,102116.09
2022-08-29T22:43:22.170Z,102119.28
2022-08-29T22:45:50.606Z,102108.16
2022-08-29T22:48:19.771Z,102117.47
2022-08-29T22:50:52.062Z,102111.34
2022-08-29T22:53:24.738Z,102105.03
2022-08-29T22:55:51.313Z,102106.06
2022-08-29T22:58:17.778Z,102106.50
2022-08-29T23:00:44.253Z,102113.69
2022-08-29T23:03:11.130Z,102109.13
2022-08-29T23:05:37.595Z,102114.28
2022-08-29T23:08:04.111Z,102116.50
2022-08-29T23:10:31.968Z,102121.19
2022-08-29T23:12:58.444Z,102127.69
2022-08-29T23:15:24.984Z,102118.53
2022-08-29T23:17:51.427Z,102121.44
2022-08-29T23:20:19.328Z,102117.56
2022-08-29T23:22:45.928Z,102120.38
2022-08-29T23:25:12.881Z,102121.91
2022-08-29T23:27:39.516Z,102116.25
2022-08-29T23:30:08.818Z,102119.22
2022-08-29T23:32:35.387Z,102120.94
2022-08-29T23:35:01.955Z,102120.19
2022-08-29T23:37:28.448Z,102128.22
2022-08-29T23:39:54.872Z,102134.25
2022-08-29T23:42:21.352Z,102129.16
2022-08-29T23:44:48.517Z,102128.72
2022-08-29T23:47:15.289Z,102123.88
2022-08-29T23:49:41.718Z,102131.00
2022-08-29T23:52:08.210Z,102126.69
2022-08-29T23:54:36.497Z,102128.44
2022-08-29T23:57:04.187Z,102129.72
2022-08-29T23:59:51.468Z,102125.38
